createdAt,value
2018-01-04T00:01:14.521Z,86.00
2018-01-04T00:03:42.054Z,86.00
2018-01-04T00:06:09.675Z,85.90
2018-01-04T00:08:37.249Z,86.20
2018-01-04T00:11:05.432Z,86.10
2018-01-04T00:13:33.021Z,86.10
2018-01-04T00:16:00.632Z,85.90
2018-01-04T00:18:28.170Z,86.00
2018-01-04T00:20:56.527Z,86.00
2018-01-04T00:23:24.110Z,86.00
2018-01-04T00:25:52.453Z,86.10
2018-01-04T00:28:20.025Z,86.10
2018-01-04T00:30:47.651Z,86.00
2018-01-04T00:33:15.231Z,86.20
2018-01-04T00:35:42.805Z,86.30
2018-01-04T00:38:10.333Z,86.30
2018-01-04T00:40:37.913Z,86.30
2018-01-04T00:43:05.447Z,86.40
2018-01-04T00:45:33.015Z,86.50
2018-01-04T00:48:00.543Z,86.40
2018-01-04T00:50:28.122Z,86.40
2018-01-04T00:52:55.652Z,86.50
2018-01-04T00:55:23.992Z,86.40
2018-01-04T00:57:51.526Z,86.30
2018-01-04T01:00:19.060Z,86.40
2018-01-04T01:02:46.631Z,86.40
2018-01-04T01:05:14.164Z,86.40
2018-01-04T01:07:42.511Z,86.20
2018-01-04T01:10:10.044Z,86.20
2018-01-04T01:12:37.624Z,86.30
2018-01-04T01:15:05.153Z,86.20
2018-01-04T01:17:32.723Z,86.40
2018-01-04T01:20:00.255Z,86.50
2018-01-04T01:22:27.832Z,86.30
2018-01-04T01:24:55.370Z,86.40
2018-01-04T01:27:22.948Z,86.40
2018-01-04T01:29:50.488Z,86.50
2018-01-04T01:32:18.824Z,86.40
2018-01-04T01:34:46.359Z,86.40
2018-01-04T01:37:13.938Z,86.30
2018-01-04T01:39:41.464Z,86.90
2018-01-04T01:42:09.040Z,86.70
2018-01-04T01:44:36.568Z,86.50
2018-01-04T01:47:04.145Z,86.90
2018-01-04T01:49:31.679Z,86.80
2018-01-04T01:52:00.026Z,86.70
2018-01-04T01:54:27.556Z,86.70
2018-01-04T01:56:55.123Z,86.50
2018-01-04T01:59:22.656Z,86.40
2018-01-04T02:01:50.226Z,86.70
2018-01-04T02:04:17.756Z,86.70
2018-01-04T02:06:46.096Z,86.30
2018-01-04T02:09:13.628Z,86.30
2018-01-04T02:11:41.202Z,86.10
2018-01-04T02:14:08.731Z,86.30
2018-01-04T02:16:36.260Z,86.10
2018-01-04T02:19:26.529Z,86.30
2018-01-04T02:22:07.465Z,86.20
2018-01-04T02:24:46.747Z,86.20
2018-01-04T02:27:26.253Z,86.10
2018-01-04T02:30:05.731Z,86.20
2018-01-04T02:32:45.887Z,86.10
2018-01-04T02:35:29.816Z,86.20
2018-01-04T02:38:09.893Z,86.10
2018-01-04T02:40:50.149Z,86.10
2018-01-04T02:43:30.229Z,86.10
2018-01-04T02:46:23.507Z,86.10
2018-01-04T02:48:51.180Z,86.10
2018-01-04T02:51:18.723Z,86.00
2018-01-04T02:53:46.321Z,86.00
2018-01-04T02:56:13.865Z,86.00
2018-01-04T02:58:41.440Z,86.00
2018-01-04T03:01:08.975Z,86.00
2018-01-04T03:03:36.553Z,86.00
2018-01-04T03:06:04.086Z,86.20
2018-01-04T03:08:31.664Z,86.10
2018-01-04T03:10:59.191Z,86.10
2018-01-04T03:13:26.778Z,86.10
2018-01-04T03:15:54.305Z,86.10
2018-01-04T03:18:21.884Z,86.10
2018-01-04T03:20:49.440Z,86.20
2018-01-04T03:23:35.704Z,86.30
2018-01-04T03:26:09.775Z,86.40
2018-01-04T03:28:43.036Z,86.40
2018-01-04T03:31:16.190Z,86.40
2018-01-04T03:33:50.268Z,86.40
2018-01-04T03:36:23.592Z,86.40
2018-01-04T03:38:56.804Z,86.30
2018-01-04T03:41:30.828Z,86.40
2018-01-04T03:44:04.190Z,86.40
2018-01-04T03:46:37.506Z,86.40
2018-01-04T03:49:11.597Z,86.40
2018-01-04T03:51:44.795Z,86.40
2018-01-04T03:54:18.750Z,86.60
2018-01-04T03:56:51.904Z,86.50
2018-01-04T03:59:26.013Z,86.80
2018-01-04T04:01:59.903Z,86.70
2018-01-04T04:04:33.267Z,86.60
2018-01-04T04:07:06.424Z,86.60
2018-01-04T04:09:33.998Z,86.60
2018-01-04T04:12:01.534Z,86.70
2018-01-04T04:14:29.879Z,86.70
2018-01-04T04:16:57.419Z,86.60
2018-01-04T04:19:24.996Z,86.60
2018-01-04T04:21:52.531Z,86.70
2018-01-04T04:24:20.108Z,86.70
2018-01-04T04:26:47.638Z,86.60
2018-01-04T04:29:15.215Z,86.70
2018-01-04T04:31:42.747Z,86.60
2018-01-04T04:34:10.312Z,86.70
2018-01-04T04:36:37.849Z,86.70
2018-01-04T04:39:06.188Z,87.30
2018-01-04T04:41:33.717Z,86.50
2018-01-04T04:44:01.291Z,86.40
2018-01-04T04:46:28.825Z,86.40
2018-01-04T04:48:56.411Z,86.40
2018-01-04T04:51:23.943Z,86.30
2018-01-04T04:53:51.519Z,86.30
2018-01-04T04:56:19.052Z,86.20
2018-01-04T04:58:46.627Z,86.20
2018-01-04T05:01:14.160Z,86.20
2018-01-04T05:03:42.496Z,86.20
2018-01-04T05:06:10.024Z,86.20
2018-01-04T05:08:37.601Z,86.10
2018-01-04T05:11:05.130Z,86.10
2018-01-04T05:13:32.710Z,86.20
2018-01-04T05:16:00.240Z,86.00
2018-01-04T05:18:28.532Z,86.20
2018-01-04T05:20:56.112Z,86.10
2018-01-04T05:23:23.649Z,86.10
2018-01-04T05:25:51.228Z,86.20
2018-01-04T05:28:18.784Z,86.20
2018-01-04T05:30:46.352Z,86.20
2018-01-04T05:33:13.883Z,86.30
2018-01-04T05:35:41.568Z,86.40
2018-01-04T05:38:09.104Z,86.50
2018-01-04T05:40:36.700Z,86.60
2018-01-04T05:43:04.229Z,86.50
2018-01-04T05:45:31.800Z,86.60
2018-01-04T05:47:59.344Z,86.70
2018-01-04T05:50:26.919Z,86.80
2018-01-04T05:52:54.455Z,86.90
2018-01-04T05:55:22.791Z,87.30
2018-01-04T05:57:50.311Z,87.30
2018-01-04T06:00:17.886Z,87.40
2018-01-04T06:02:45.425Z,87.60
2018-01-04T06:05:12.998Z,87.80
2018-01-04T06:07:40.522Z,87.90
2018-01-04T06:10:08.864Z,88.20
2018-01-04T06:12:36.405Z,88.20
2018-01-04T06:15:03.999Z,88.20
2018-01-04T06:17:31.529Z,88.30
2018-01-04T06:19:59.055Z,88.50
2018-01-04T06:22:26.637Z,88.60
2018-01-04T06:24:54.165Z,88.60
2018-01-04T06:27:22.509Z,88.80
2018-01-04T06:29:50.046Z,88.80
2018-01-04T06:32:17.653Z,88.60
2018-01-04T06:34:45.949Z,88.80
2018-01-04T06:37:13.523Z,89.50
2018-01-04T06:39:41.056Z,88.70
2018-01-04T06:42:09.391Z,88.60
2018-01-04T06:44:36.924Z,88.60
2018-01-04T06:47:04.502Z,88.70
2018-01-04T06:49:32.035Z,88.70
2018-01-04T06:51:59.605Z,88.70
2018-01-04T06:54:27.136Z,88.70
2018-01-04T06:56:54.712Z,88.60
2018-01-04T06:59:22.252Z,88.80
2018-01-04T07:01:50.664Z,88.80
2018-01-04T07:04:18.191Z,88.80
2018-01-04T07:06:46.534Z,88.80
2018-01-04T07:09:14.065Z,88.80
2018-01-04T07:11:41.633Z,88.80
2018-01-04T07:14:09.172Z,88.90
2018-01-04T07:16:36.759Z,89.10
2018-01-04T07:19:04.347Z,89.00
2018-01-04T07:21:32.040Z,89.10
2018-01-04T07:23:59.572Z,89.30
2018-01-04T07:26:27.902Z,89.30
2018-01-04T07:28:55.427Z,89.30
2018-01-04T07:31:22.999Z,89.40
2018-01-04T07:33:50.532Z,89.40
2018-01-04T07:36:18.870Z,89.10
2018-01-04T07:38:46.410Z,89.10
2018-01-04T07:41:13.980Z,89.30
2018-01-04T07:43:41.513Z,89.40
2018-01-04T07:46:09.208Z,89.70
2018-01-04T07:48:36.734Z,89.70
2018-01-04T07:51:04.312Z,89.40
2018-01-04T07:53:31.840Z,89.40
2018-01-04T07:56:00.176Z,89.40
2018-01-04T07:58:27.707Z,89.40
2018-01-04T08:00:55.285Z,89.60
2018-01-04T08:03:22.811Z,89.50
2018-01-04T08:05:50.387Z,89.60
2018-01-04T08:08:17.920Z,90.00
2018-01-04T08:10:45.500Z,90.10
2018-01-04T08:13:13.066Z,90.20
2018-01-04T08:15:40.660Z,90.40
2018-01-04T08:18:08.183Z,90.30
2018-01-04T08:20:35.721Z,90.30
2018-01-04T08:23:03.300Z,90.30
2018-01-04T08:25:30.835Z,90.40
2018-01-04T08:27:58.404Z,90.30
2018-01-04T08:30:25.933Z,90.20
2018-01-04T08:32:53.506Z,90.30
2018-01-04T08:35:21.901Z,90.30
2018-01-04T08:37:49.481Z,90.20
2018-01-04T08:40:17.020Z,90.20
2018-01-04T08:42:44.593Z,90.20
2018-01-04T08:45:12.131Z,90.20
2018-01-04T08:47:40.473Z,90.10
2018-01-04T08:50:08.005Z,90.10
2018-01-04T08:52:35.576Z,90.10
2018-01-04T08:55:03.451Z,90.20
2018-01-04T08:57:31.036Z,90.10
2018-01-04T08:59:58.566Z,90.20
2018-01-04T09:02:26.144Z,90.10
2018-01-04T09:04:53.675Z,90.20
2018-01-04T09:07:21.250Z,90.20
2018-01-04T09:09:48.793Z,90.20
2018-01-04T09:12:16.368Z,99.90
2018-01-04T09:14:43.901Z,94.10
2018-01-04T09:17:11.479Z,89.70
2018-01-04T09:19:39.011Z,83.80
2018-01-04T09:22:06.601Z,80.30
2018-01-04T09:24:34.131Z,76.90
2018-01-04T09:27:01.673Z,76.20
2018-01-04T09:29:30.019Z,74.60
2018-01-04T09:31:57.568Z,74.50
2018-01-04T09:34:25.140Z,73.90
2018-01-04T09:36:52.677Z,73.20
2018-01-04T09:39:20.260Z,73.00
2018-01-04T09:41:47.797Z,72.20
2018-01-04T09:44:15.382Z,72.10
2018-01-04T09:46:42.914Z,71.90
2018-01-04T09:49:10.486Z,71.60
2018-01-04T09:51:38.025Z,71.70
2018-01-04T09:54:05.609Z,71.70
2018-01-04T09:56:33.147Z,71.50
2018-01-04T09:59:00.733Z,71.60
2018-01-04T10:01:28.271Z,72.00
2018-01-04T10:03:55.850Z,71.70
2018-01-04T10:06:23.390Z,71.70
2018-01-04T10:08:50.969Z,71.60
2018-01-04T10:11:18.500Z,71.80
2018-01-04T10:13:46.094Z,71.70
2018-01-04T10:16:13.715Z,72.10
2018-01-04T10:18:41.324Z,72.20
2018-01-04T10:21:09.653Z,73.00
2018-01-04T10:23:37.235Z,72.30
2018-01-04T10:26:04.805Z,72.40
2018-01-04T10:28:32.409Z,72.50
2018-01-04T10:30:59.955Z,72.90
2018-01-04T10:33:28.256Z,73.00
2018-01-04T10:35:55.841Z,73.00
2018-01-04T10:38:23.423Z,73.00
2018-01-04T10:40:50.951Z,73.30
2018-01-04T10:43:18.524Z,73.90
2018-01-04T10:45:46.066Z,73.90
2018-01-04T10:48:13.639Z,74.00
2018-01-04T10:50:41.172Z,74.10
2018-01-04T10:53:08.749Z,74.30
2018-01-04T10:55:36.288Z,74.40
2018-01-04T10:58:03.874Z,74.30
2018-01-04T11:00:31.407Z,74.30
2018-01-04T11:02:58.940Z,74.80
2018-01-04T11:05:26.814Z,74.90
2018-01-04T11:07:54.415Z,74.80
2018-01-04T11:10:22.041Z,75.00
2018-01-04T11:12:50.406Z,75.50
2018-01-04T11:15:17.999Z,75.40
2018-01-04T11:17:45.534Z,75.40
2018-01-04T11:20:13.875Z,75.60
2018-01-04T11:22:41.416Z,75.60
2018-01-04T11:25:09.001Z,75.80
2018-01-04T11:27:36.551Z,76.00
2018-01-04T11:30:04.136Z,76.20
2018-01-04T11:32:31.668Z,76.30
2018-01-04T11:34:59.244Z,76.50
2018-01-04T11:37:26.784Z,76.70
2018-01-04T11:39:54.360Z,76.90
2018-01-04T11:42:21.902Z,77.00
2018-01-04T11:44:49.483Z,77.00
2018-01-04T11:47:17.015Z,77.10
2018-01-04T11:49:44.601Z,77.10
2018-01-04T11:52:12.143Z,77.30
2018-01-04T11:54:39.768Z,77.60
2018-01-04T11:57:07.440Z,77.60
2018-01-04T11:59:34.991Z,77.70
2018-01-04T12:02:02.595Z,77.80
2018-01-04T12:04:30.238Z,77.80
2018-01-04T12:06:57.766Z,79.10
2018-01-04T12:09:25.457Z,79.30
2018-01-04T12:11:52.988Z,79.40
2018-01-04T12:14:21.323Z,79.70
2018-01-04T12:16:48.852Z,79.70
2018-01-04T12:19:16.516Z,80.50
2018-01-04T12:21:44.053Z,79.70
2018-01-04T12:24:11.620Z,80.10
2018-01-04T12:26:39.268Z,80.10
2018-01-04T12:29:07.636Z,80.20
2018-01-04T12:31:35.953Z,80.50
2018-01-04T12:34:03.479Z,80.40
2018-01-04T12:36:31.897Z,80.60
2018-01-04T12:38:59.555Z,80.60
2018-01-04T12:41:27.113Z,80.70
2018-01-04T12:43:54.879Z,80.90
2018-01-04T12:46:22.435Z,81.10
2018-01-04T12:48:50.005Z,81.00
2018-01-04T12:51:17.532Z,80.90
2018-01-04T12:53:45.863Z,81.20
2018-01-04T12:56:13.425Z,81.10
2018-01-04T12:58:41.012Z,81.20
2018-01-04T13:01:08.562Z,81.50
2018-01-04T13:03:36.088Z,81.60
2018-01-04T13:06:03.684Z,81.50
2018-01-04T13:08:31.211Z,81.70
2018-01-04T13:10:58.855Z,81.70
2018-01-04T13:13:26.408Z,81.70
2018-01-04T13:15:54.004Z,81.80
2018-01-04T13:18:21.546Z,82.00
2018-01-04T13:20:49.120Z,82.10
2018-01-04T13:23:16.654Z,82.10
2018-01-04T13:25:44.230Z,82.10
2018-01-04T13:28:11.773Z,82.00
2018-01-04T13:30:39.424Z,82.00
2018-01-04T13:33:06.971Z,81.90
2018-01-04T13:35:34.553Z,82.10
2018-01-04T13:38:02.104Z,82.20
2018-01-04T13:40:29.681Z,82.30
2018-01-04T13:42:57.230Z,82.50
2018-01-04T13:45:24.816Z,82.50
2018-01-04T13:47:52.432Z,82.70
2018-01-04T13:50:20.023Z,82.90
2018-01-04T13:52:47.563Z,82.80
2018-01-04T13:55:15.133Z,82.60
2018-01-04T13:57:42.659Z,82.90
2018-01-04T14:00:11.039Z,83.00
2018-01-04T14:02:39.431Z,83.20
2018-01-04T14:05:07.003Z,83.10
2018-01-04T14:07:34.588Z,83.20
2018-01-04T14:10:02.140Z,82.90
2018-01-04T14:12:29.719Z,83.00
2018-01-04T14:14:57.250Z,83.10
2018-01-04T14:17:24.930Z,83.20
2018-01-04T14:19:52.576Z,83.30
2018-01-04T14:22:20.151Z,83.20
2018-01-04T14:24:47.686Z,83.40
2018-01-04T14:27:15.286Z,83.50
2018-01-04T14:29:42.821Z,83.50
2018-01-04T14:32:10.407Z,83.60
2018-01-04T14:34:37.947Z,83.70
2018-01-04T14:37:05.522Z,83.80
2018-01-04T14:39:33.057Z,84.00
2018-01-04T14:42:00.631Z,84.00
2018-01-04T14:44:28.156Z,84.10
2018-01-04T14:46:55.800Z,84.10
2018-01-04T14:49:24.096Z,84.10
2018-01-04T14:51:51.627Z,84.10
2018-01-04T14:54:19.963Z,84.20
2018-01-04T14:56:47.495Z,84.20
2018-01-04T14:59:15.068Z,84.40
2018-01-04T15:01:42.600Z,84.40
2018-01-04T15:04:10.942Z,84.50
2018-01-04T15:06:39.247Z,84.50
2018-01-04T15:09:07.882Z,84.50
2018-01-04T15:11:35.431Z,84.50
2018-01-04T15:14:03.000Z,84.70
2018-01-04T15:16:30.527Z,84.70
2018-01-04T15:18:58.095Z,84.60
2018-01-04T15:21:25.627Z,84.80
2018-01-04T15:23:53.967Z,84.90
2018-01-04T15:26:21.493Z,84.80
2018-01-04T15:28:49.072Z,85.00
2018-01-04T15:31:16.608Z,85.00
2018-01-04T15:33:44.181Z,85.00
2018-01-04T15:36:11.708Z,85.10
2018-01-04T15:38:40.044Z,85.30
2018-01-04T15:41:07.592Z,85.30
2018-01-04T15:43:35.183Z,85.30
2018-01-04T15:46:02.721Z,85.40
2018-01-04T15:48:30.295Z,85.50
2018-01-04T15:50:57.831Z,85.60
2018-01-04T15:53:25.406Z,85.60
2018-01-04T15:55:52.933Z,85.60
2018-01-04T15:58:20.498Z,85.60
2018-01-04T16:00:48.027Z,85.70
2018-01-04T16:03:16.370Z,85.90
2018-01-04T16:05:43.903Z,85.80
2018-01-04T16:08:11.470Z,85.90
2018-01-04T16:10:38.994Z,85.90
2018-01-04T16:13:06.564Z,86.00
2018-01-04T16:15:34.099Z,86.20
2018-01-04T16:18:02.438Z,86.40
2018-01-04T16:20:29.971Z,86.40
2018-01-04T16:22:57.545Z,86.40
2018-01-04T16:25:25.100Z,86.50
2018-01-04T16:27:52.681Z,86.40
2018-01-04T16:30:20.210Z,86.60
2018-01-04T16:32:47.784Z,86.90
2018-01-04T16:35:15.321Z,87.40
2018-01-04T16:37:42.892Z,88.40
2018-01-04T16:40:10.424Z,88.70
2018-01-04T16:42:38.042Z,89.20
2018-01-04T16:45:05.571Z,88.90
2018-01-04T16:47:33.144Z,90.00
2018-01-04T16:50:00.677Z,90.40
2018-01-04T16:52:28.251Z,90.80
2018-01-04T16:54:55.791Z,90.80
2018-01-04T16:57:23.321Z,91.20
2018-01-04T16:59:51.668Z,91.30
2018-01-04T17:02:19.250Z,91.30
2018-01-04T17:04:46.822Z,91.30
2018-01-04T17:07:15.116Z,91.60
2018-01-04T17:09:42.751Z,91.60
2018-01-04T17:12:10.335Z,91.70
2018-01-04T17:14:38.679Z,92.00
2018-01-04T17:17:06.302Z,92.00
2018-01-04T17:19:33.871Z,92.10
2018-01-04T17:22:01.445Z,92.20
2018-01-04T17:24:30.208Z,92.20
2018-01-04T17:26:57.761Z,92.10
2018-01-04T17:29:25.413Z,92.40
2018-01-04T17:31:55.743Z,92.30
2018-01-04T17:34:25.991Z,92.40
2018-01-04T17:36:53.565Z,92.30
2018-01-04T17:39:21.179Z,92.40
2018-01-04T17:41:48.750Z,92.50
2018-01-04T17:44:16.329Z,92.30
2018-01-04T17:46:43.989Z,92.30
2018-01-04T17:49:11.604Z,92.40
2018-01-04T17:51:39.905Z,92.60
2018-01-04T17:54:07.479Z,92.50
2018-01-04T17:56:35.007Z,92.40
2018-01-04T17:59:03.357Z,92.50
2018-01-04T18:01:30.890Z,92.50
2018-01-04T18:03:58.466Z,92.50
2018-01-04T18:06:26.039Z,92.60
2018-01-04T18:08:53.655Z,92.60
2018-01-04T18:11:21.231Z,92.70
2018-01-04T18:13:48.804Z,92.70
2018-01-04T18:16:16.340Z,92.90
2018-01-04T18:18:43.966Z,92.60
2018-01-04T18:21:12.263Z,92.80
2018-01-04T18:23:39.873Z,92.80
2018-01-04T18:26:07.458Z,92.80
2018-01-04T18:28:35.832Z,92.90
2018-01-04T18:31:04.184Z,92.90
2018-01-04T18:33:31.766Z,92.80
2018-01-04T18:35:59.385Z,92.90
2018-01-04T18:38:26.993Z,92.90
2018-01-04T18:40:55.294Z,92.80
2018-01-04T18:43:22.916Z,92.80
2018-01-04T18:45:50.449Z,92.80
2018-01-04T18:48:18.075Z,93.00
2018-01-04T18:50:45.658Z,93.20
2018-01-04T18:53:13.278Z,93.00
2018-01-04T18:55:41.624Z,92.90
2018-01-04T18:58:09.196Z,92.90
2018-01-04T19:00:36.728Z,93.00
2018-01-04T19:03:04.342Z,92.90
2018-01-04T19:05:32.635Z,93.00
2018-01-04T19:08:00.251Z,93.00
2018-01-04T19:10:27.835Z,92.80
2018-01-04T19:12:56.221Z,93.10
2018-01-04T19:15:24.567Z,93.20
2018-01-04T19:17:52.200Z,93.20
2018-01-04T19:20:19.777Z,93.10
2018-01-04T19:22:47.350Z,93.10
2018-01-04T19:25:14.992Z,93.20
2018-01-04T19:27:42.576Z,93.20
2018-01-04T19:30:10.206Z,93.20
2018-01-04T19:32:37.782Z,93.00
2018-01-04T19:35:05.409Z,93.20
2018-01-04T19:37:32.940Z,93.20
2018-01-04T19:40:01.340Z,93.20
2018-01-04T19:42:28.922Z,93.20
2018-01-04T19:44:56.544Z,93.20
2018-01-04T19:47:24.892Z,93.40
2018-01-04T19:49:52.546Z,93.40
2018-01-04T19:52:20.149Z,93.20
2018-01-04T19:54:48.534Z,93.40
2018-01-04T19:57:16.116Z,93.40
2018-01-04T19:59:43.740Z,93.40
2018-01-04T20:02:12.087Z,93.40
2018-01-04T20:04:39.726Z,93.40
2018-01-04T20:07:07.307Z,93.20
2018-01-04T20:09:34.919Z,93.20
2018-01-04T20:12:02.501Z,93.30
2018-01-04T20:14:30.175Z,93.20
2018-01-04T20:16:57.766Z,93.40
2018-01-04T20:19:26.160Z,93.30
2018-01-04T20:21:54.524Z,93.30
2018-01-04T20:24:22.189Z,93.30
2018-01-04T20:26:49.814Z,93.40
2018-01-04T20:29:17.461Z,93.40
2018-01-04T20:31:45.049Z,93.50
2018-01-04T20:34:12.697Z,93.30
2018-01-04T20:36:40.290Z,93.30
2018-01-04T20:39:08.678Z,93.30
2018-01-04T20:41:36.274Z,93.60
2018-01-04T20:44:03.899Z,93.70
2018-01-04T20:46:31.480Z,93.40
2018-01-04T20:48:59.875Z,93.80
2018-01-04T20:51:27.449Z,93.80
2018-01-04T20:53:55.076Z,93.50
2018-01-04T20:56:23.421Z,93.50
2018-01-04T20:58:51.058Z,93.50
2018-01-04T21:01:18.637Z,93.70
2018-01-04T21:03:46.272Z,93.90
2018-01-04T21:06:13.860Z,93.70
2018-01-04T21:08:41.606Z,93.70
2018-01-04T21:11:09.187Z,93.70
2018-01-04T21:13:36.815Z,93.70
2018-01-04T21:16:04.394Z,93.80
2018-01-04T21:18:32.019Z,93.60
2018-01-04T21:20:59.592Z,93.70
2018-01-04T21:23:28.075Z,93.70
2018-01-04T21:25:55.655Z,93.70
2018-01-04T21:28:23.301Z,93.70
2018-01-04T21:30:50.881Z,93.60
2018-01-04T21:33:18.525Z,93.70
2018-01-04T21:35:46.102Z,93.80
2018-01-04T21:38:13.725Z,93.60
2018-01-04T21:40:41.304Z,93.70
2018-01-04T21:43:08.931Z,93.70
2018-01-04T21:45:37.281Z,93.90
2018-01-04T21:48:04.927Z,93.90
2018-01-04T21:50:32.508Z,93.60
2018-01-04T21:53:01.651Z,93.70
2018-01-04T21:55:29.247Z,93.60
2018-01-04T21:57:56.880Z,93.50
2018-01-04T22:00:24.465Z,93.50
2018-01-04T22:02:52.091Z,94.10
2018-01-04T22:05:19.665Z,93.50
2018-01-04T22:07:47.281Z,93.30
2018-01-04T22:10:14.866Z,93.30
2018-01-04T22:12:43.257Z,93.30
2018-01-04T22:15:10.853Z,93.60
2018-01-04T22:17:38.482Z,93.10
2018-01-04T22:20:06.063Z,93.00
2018-01-04T22:22:33.726Z,93.10
2018-01-04T22:25:01.308Z,93.00
2018-01-04T22:27:28.928Z,93.10
2018-01-04T22:29:56.511Z,92.90
2018-01-04T22:32:24.159Z,93.00
2018-01-04T22:34:51.738Z,92.80
2018-01-04T22:37:19.628Z,92.80
2018-01-04T22:39:47.259Z,92.80
2018-01-04T22:42:14.880Z,92.80
2018-01-04T22:44:43.301Z,92.60
2018-01-04T22:47:10.927Z,92.60
2018-01-04T22:49:38.506Z,92.70
2018-01-04T22:52:06.124Z,92.70
2018-01-04T22:54:33.709Z,92.70
2018-01-04T22:57:01.342Z,93.00
2018-01-04T22:59:28.923Z,92.60
2018-01-04T23:01:57.314Z,92.70
2018-01-04T23:04:24.894Z,92.60
2018-01-04T23:06:52.511Z,92.60
2018-01-04T23:09:20.091Z,92.60
2018-01-04T23:11:48.486Z,92.70
2018-01-04T23:14:16.071Z,92.60
2018-01-04T23:16:43.704Z,92.80
2018-01-04T23:19:11.287Z,92.80
2018-01-04T23:21:38.919Z,92.70
2018-01-04T23:24:06.493Z,92.90
2018-01-04T23:26:34.113Z,92.80
2018-01-04T23:29:01.693Z,92.80
2018-01-04T23:31:30.068Z,92.90
2018-01-04T23:33:58.409Z,92.90
2018-01-04T23:36:26.031Z,93.00
2018-01-04T23:38:53.602Z,92.90
2018-01-04T23:41:21.218Z,93.00
2018-01-04T23:43:49.573Z,93.10
2018-01-04T23:46:17.190Z,93.10
2018-01-04T23:48:44.768Z,93.00
2018-01-04T23:51:12.393Z,93.10
2018-01-04T23:53:40.732Z,93.20
2018-01-04T23:56:08.346Z,93.20
2018-01-04T23:58:35.930Z,93.10
